createdAt,value
2018-01-19T00:00:38.754Z,0.00
2018-01-19T00:01:44.812Z,0.00
2018-01-19T00:02:50.911Z,0.00
2018-01-19T00:03:57.050Z,0.00
2018-01-19T00:05:03.037Z,0.00
2018-01-19T00:06:09.114Z,0.00
2018-01-19T00:07:15.204Z,0.00
2018-01-19T00:08:21.231Z,0.00
2018-01-19T00:09:27.334Z,0.00
2018-01-19T00:10:33.361Z,0.00
2018-01-19T00:11:40.412Z,0.00
2018-01-19T00:12:45.551Z,0.00
2018-01-19T00:13:51.496Z,0.00
2018-01-19T00:14:57.641Z,0.00
2018-01-19T00:16:03.706Z,0.00
2018-01-19T00:17:09.950Z,0.00
2018-01-19T00:18:15.805Z,0.00
2018-01-19T00:19:21.945Z,0.00
2018-01-19T00:20:27.889Z,0.00
2018-01-19T00:21:33.999Z,0.00
2018-01-19T00:22:40.017Z,0.00
2018-01-19T00:23:46.151Z,0.00
2018-01-19T00:24:52.193Z,0.00
2018-01-19T00:25:58.230Z,0.00
2018-01-19T00:27:04.307Z,0.00
2018-01-19T00:28:10.359Z,0.00
2018-01-19T00:29:16.441Z,0.00
2018-01-19T00:30:22.477Z,0.00
2018-01-19T00:31:28.603Z,0.00
2018-01-19T00:33:40.772Z,0.00
2018-01-19T00:34:46.823Z,0.00
2018-01-19T00:35:52.842Z,0.00
2018-01-19T00:36:58.917Z,0.00
2018-01-19T00:38:05.000Z,0.00
2018-01-19T00:39:10.955Z,0.00
2018-01-19T00:40:17.070Z,0.00
2018-01-19T00:41:23.201Z,0.00
2018-01-19T00:42:29.225Z,0.00
2018-01-19T00:43:35.271Z,0.00
2018-01-19T00:44:41.297Z,0.00
2018-01-19T00:45:47.435Z,0.00
2018-01-19T00:46:53.444Z,0.00
2018-01-19T00:47:59.552Z,0.00
2018-01-19T00:49:05.572Z,0.00
2018-01-19T00:50:11.741Z,0.00
2018-01-19T00:51:17.779Z,0.00
2018-01-19T00:52:23.787Z,0.00
2018-01-19T00:53:29.862Z,0.00
2018-01-19T00:54:35.974Z,0.00
2018-01-19T00:55:42.040Z,0.00
2018-01-19T00:56:48.012Z,0.00
2018-01-19T00:57:54.154Z,0.00
2018-01-19T00:59:00.176Z,0.00
2018-01-19T01:00:06.386Z,0.00
2018-01-19T01:01:12.326Z,0.00
2018-01-19T01:02:18.430Z,0.00
2018-01-19T01:03:24.403Z,0.00
2018-01-19T01:04:30.574Z,0.00
2018-01-19T01:05:36.578Z,0.00
2018-01-19T01:06:42.662Z,0.00
2018-01-19T01:07:48.780Z,0.00
2018-01-19T01:08:54.772Z,0.00
2018-01-19T01:10:00.838Z,0.00
2018-01-19T01:11:06.974Z,0.00
2018-01-19T01:12:12.956Z,0.00
2018-01-19T01:13:20.063Z,0.00
2018-01-19T01:14:24.593Z,0.00
2018-01-19T01:15:31.184Z,0.00
2018-01-19T01:16:37.247Z,0.00
2018-01-19T01:17:43.359Z,0.00
2018-01-19T01:18:50.384Z,0.00
2018-01-19T01:21:01.499Z,0.00
2018-01-19T01:22:06.998Z,0.00
2018-01-19T01:24:19.740Z,0.00
2018-01-19T01:25:25.678Z,0.00
2018-01-19T01:27:37.841Z,0.00
2018-01-19T01:29:49.897Z,0.00
2018-01-19T01:30:55.951Z,0.00
2018-01-19T01:32:02.022Z,0.00
2018-01-19T01:33:08.137Z,0.00
2018-01-19T01:34:14.140Z,0.00
2018-01-19T01:35:20.235Z,0.00
2018-01-19T01:36:26.231Z,0.00
2018-01-19T01:37:32.339Z,0.00
2018-01-19T01:38:38.302Z,0.00
2018-01-19T01:39:44.332Z,0.00
2018-01-19T01:40:50.415Z,0.00
2018-01-19T01:41:56.524Z,0.00
2018-01-19T01:43:03.577Z,0.00
2018-01-19T01:44:08.592Z,0.00
2018-01-19T01:45:14.557Z,0.00
2018-01-19T01:46:20.735Z,0.00
2018-01-19T01:47:27.185Z,0.00
2018-01-19T01:48:32.733Z,0.00
2018-01-19T01:49:38.780Z,0.00
2018-01-19T01:50:44.820Z,0.00
2018-01-19T01:51:50.877Z,0.00
2018-01-19T01:52:56.900Z,0.00
2018-01-19T01:54:03.318Z,0.00
2018-01-19T01:55:08.525Z,0.00
2018-01-19T01:56:15.068Z,0.00
2018-01-19T01:57:21.074Z,0.00
2018-01-19T01:58:27.160Z,0.00
2018-01-19T01:59:33.199Z,0.00
2018-01-19T02:00:39.192Z,0.00
2018-01-19T02:01:45.343Z,0.00
2018-01-19T02:02:51.341Z,0.00
2018-01-19T02:03:57.347Z,0.00
2018-01-19T02:05:03.386Z,0.00
2018-01-19T02:06:13.852Z,0.00
2018-01-19T02:07:23.756Z,0.00
2018-01-19T02:08:29.849Z,0.00
2018-01-19T02:09:35.880Z,0.00
2018-01-19T02:10:41.868Z,0.00
2018-01-19T02:12:53.972Z,0.00
2018-01-19T02:14:00.988Z,0.00
2018-01-19T02:15:06.124Z,0.00
2018-01-19T02:16:12.111Z,0.00
2018-01-19T02:17:18.103Z,0.00
2018-01-19T02:18:24.209Z,0.00
2018-01-19T02:19:30.296Z,0.00
2018-01-19T02:20:36.321Z,0.00
2018-01-19T02:21:42.402Z,0.00
2018-01-19T02:22:48.363Z,0.00
2018-01-19T02:23:54.412Z,0.00
2018-01-19T02:25:00.436Z,0.00
2018-01-19T02:26:06.532Z,0.00
2018-01-19T02:27:12.485Z,0.00
2018-01-19T02:28:18.523Z,0.00
2018-01-19T02:29:24.712Z,0.00
2018-01-19T02:30:30.587Z,0.00
2018-01-19T02:32:42.754Z,0.00
2018-01-19T02:33:48.312Z,0.00
2018-01-19T02:36:00.896Z,0.00
2018-01-19T02:37:06.356Z,0.00
2018-01-19T02:38:13.013Z,0.00
2018-01-19T02:39:19.194Z,0.00
2018-01-19T02:41:31.029Z,0.00
2018-01-19T02:42:36.581Z,0.00
2018-01-19T02:43:43.266Z,0.00
2018-01-19T02:44:49.217Z,0.00
2018-01-19T02:45:55.392Z,0.00
2018-01-19T02:47:01.286Z,0.00
2018-01-19T02:48:07.380Z,0.00
2018-01-19T02:49:13.264Z,0.00
2018-01-19T02:50:19.545Z,0.00
2018-01-19T02:51:25.823Z,0.00
2018-01-19T02:52:31.312Z,0.00
2018-01-19T02:53:37.384Z,0.00
2018-01-19T02:54:43.391Z,0.00
2018-01-19T02:55:49.476Z,0.00
2018-01-19T02:56:55.458Z,0.00
2018-01-19T02:58:01.598Z,0.00
2018-01-19T02:59:07.452Z,0.00
2018-01-19T03:00:13.588Z,0.00
2018-01-19T03:01:19.651Z,0.00
2018-01-19T03:02:25.572Z,0.00
2018-01-19T03:03:31.605Z,0.00
2018-01-19T03:04:37.552Z,0.00
2018-01-19T03:06:49.619Z,0.00
2018-01-19T03:07:55.731Z,0.00
2018-01-19T03:09:01.698Z,0.00
2018-01-19T03:10:08.387Z,0.00
2018-01-19T03:11:13.886Z,0.00
2018-01-19T03:12:19.847Z,0.00
2018-01-19T03:13:25.754Z,0.00
2018-01-19T03:14:31.964Z,0.00
2018-01-19T03:17:50.001Z,0.00
2018-01-19T03:18:55.869Z,0.00
2018-01-19T03:20:02.070Z,0.00
2018-01-19T03:21:08.024Z,0.00
2018-01-19T03:22:14.023Z,0.00
2018-01-19T03:23:20.083Z,0.00
2018-01-19T03:24:26.060Z,0.00
2018-01-19T03:25:32.191Z,0.00
2018-01-19T03:26:38.119Z,0.00
2018-01-19T03:27:44.282Z,0.00
2018-01-19T03:28:50.256Z,0.00
2018-01-19T03:29:56.269Z,0.00
2018-01-19T03:31:02.307Z,0.00
2018-01-19T03:32:09.310Z,0.00
2018-01-19T03:33:14.526Z,0.00
2018-01-19T03:35:26.432Z,0.00
2018-01-19T03:36:32.648Z,0.00
2018-01-19T03:37:38.527Z,0.00
2018-01-19T03:38:44.632Z,0.00
2018-01-19T03:39:50.497Z,0.00
2018-01-19T03:40:56.602Z,0.00
2018-01-19T03:42:02.591Z,0.00
2018-01-19T03:43:08.599Z,0.00
2018-01-19T03:45:20.630Z,0.00
2018-01-19T03:49:44.775Z,0.00
2018-01-19T03:50:50.900Z,0.00
2018-01-19T03:51:57.057Z,0.00
2018-01-19T03:55:14.915Z,0.00
2018-01-19T03:57:27.167Z,0.00
2018-01-19T03:58:33.323Z,0.00
2018-01-19T03:59:39.387Z,0.00
2018-01-19T04:00:45.148Z,0.00
2018-01-19T04:01:51.436Z,0.00
2018-01-19T04:04:03.382Z,0.00
2018-01-19T04:05:09.516Z,0.00
2018-01-19T04:06:16.159Z,0.00
2018-01-19T04:07:21.730Z,0.00
2018-01-19T04:10:39.348Z,0.00
2018-01-19T04:11:45.375Z,0.00
2018-01-19T04:12:51.661Z,0.00
2018-01-19T04:15:04.784Z,0.00
2018-01-19T04:16:09.620Z,0.00
2018-01-19T04:18:22.007Z,0.00
2018-01-19T04:19:28.064Z,0.00
2018-01-19T04:23:52.752Z,0.00
2018-01-19T04:24:57.453Z,0.00
2018-01-19T04:27:09.896Z,0.00
2018-01-19T04:28:16.809Z,0.00
2018-01-19T04:29:22.197Z,0.00
2018-01-19T04:30:29.080Z,0.00
2018-01-19T04:31:33.667Z,0.00
2018-01-19T04:32:39.961Z,0.00
2018-01-19T04:33:46.010Z,0.00
2018-01-19T04:34:52.265Z,0.00
2018-01-19T04:39:25.392Z,0.00
2018-01-19T04:40:30.844Z,0.00
2018-01-19T04:41:37.678Z,0.00
2018-01-19T04:44:54.656Z,0.00
2018-01-19T04:48:12.684Z,0.00
2018-01-19T04:49:18.706Z,0.00
2018-01-19T04:50:24.902Z,0.00
2018-01-19T04:53:42.883Z,0.00
2018-01-19T04:58:07.464Z,0.00
2018-01-19T05:00:19.460Z,0.00
2018-01-19T05:03:37.427Z,0.00
2018-01-19T05:05:49.706Z,0.00
2018-01-19T05:06:55.266Z,0.00
2018-01-19T05:08:01.377Z,0.00
2018-01-19T05:09:07.367Z,0.00
2018-01-19T05:10:13.413Z,0.00
2018-01-19T05:12:25.620Z,0.00
2018-01-19T05:14:37.562Z,0.00
2018-01-19T05:16:50.488Z,0.00
2018-01-19T05:17:55.183Z,0.00
2018-01-19T05:19:01.956Z,0.00
2018-01-19T05:20:09.163Z,0.00
2018-01-19T05:22:20.757Z,0.00
2018-01-19T05:23:26.885Z,0.00
2018-01-19T05:24:42.868Z,0.00
2018-01-19T05:25:46.237Z,0.00
2018-01-19T05:27:59.173Z,0.00
2018-01-19T05:29:05.217Z,0.00
2018-01-19T05:30:12.311Z,0.00
2018-01-19T05:31:16.493Z,0.00
2018-01-19T05:32:23.389Z,0.00
2018-01-19T05:34:34.541Z,0.00
2018-01-19T05:35:40.627Z,0.00
2018-01-19T05:37:52.722Z,0.00
2018-01-19T05:38:58.823Z,0.00
2018-01-19T05:41:10.877Z,0.00
2018-01-19T05:42:16.504Z,0.00
2018-01-19T05:46:41.122Z,0.00
2018-01-19T05:47:46.694Z,0.00
2018-01-19T05:49:59.772Z,0.00
2018-01-19T05:51:05.349Z,0.00
2018-01-19T05:52:11.529Z,0.00
2018-01-19T05:53:17.457Z,0.00
2018-01-19T05:54:23.519Z,0.00
2018-01-19T05:55:29.564Z,0.00
2018-01-19T05:56:36.738Z,0.00
2018-01-19T05:57:41.757Z,0.00
2018-01-19T05:59:54.342Z,0.00
2018-01-19T06:01:00.765Z,0.00
2018-01-19T06:02:05.978Z,0.00
2018-01-19T06:05:23.647Z,0.00
2018-01-19T06:06:30.886Z,0.00
2018-01-19T06:07:36.210Z,0.00
2018-01-19T06:08:42.359Z,0.00
2018-01-19T06:09:48.334Z,0.00
2018-01-19T06:13:08.410Z,0.00
2018-01-19T06:15:19.568Z,0.00
2018-01-19T06:16:24.154Z,0.00
2018-01-19T06:19:42.886Z,0.00
2018-01-19T06:21:54.961Z,0.00
2018-01-19T06:23:02.141Z,0.00
2018-01-19T06:24:07.169Z,0.00
2018-01-19T06:25:14.170Z,0.00
2018-01-19T06:26:20.169Z,0.00
2018-01-19T06:27:26.288Z,0.00
2018-01-19T06:29:39.447Z,0.00
2018-01-19T06:30:45.414Z,0.00
2018-01-19T06:31:49.808Z,0.00
2018-01-19T06:32:55.830Z,0.00
2018-01-19T06:34:02.137Z,0.00
2018-01-19T06:35:07.862Z,0.00
2018-01-19T06:36:13.876Z,0.00
2018-01-19T06:38:26.109Z,0.00
2018-01-19T06:39:32.027Z,0.00
2018-01-19T06:41:44.235Z,0.00
2018-01-19T06:42:50.335Z,0.00
2018-01-19T06:43:55.866Z,4.00
2018-01-19T06:45:02.482Z,4.00
2018-01-19T06:47:17.862Z,4.00
2018-01-19T06:48:29.433Z,4.00
2018-01-19T06:49:35.324Z,4.00
2018-01-19T06:50:41.402Z,8.00
2018-01-19T06:51:47.543Z,8.00
2018-01-19T06:52:53.037Z,8.00
2018-01-19T06:56:10.568Z,20.00
2018-01-19T06:58:23.135Z,28.00
2018-01-19T06:59:29.128Z,28.00
2018-01-19T07:00:35.341Z,32.00
2018-01-19T07:04:59.381Z,52.00
2018-01-19T07:07:11.692Z,76.00
2018-01-19T07:09:24.632Z,104.00
2018-01-19T07:13:47.355Z,196.00
2018-01-19T07:16:00.031Z,220.00
2018-01-19T07:17:05.869Z,244.00
2018-01-19T07:18:11.937Z,252.00
2018-01-19T07:19:18.457Z,284.00
2018-01-19T07:20:24.047Z,308.00
2018-01-19T07:21:30.297Z,312.00
2018-01-19T07:22:36.111Z,336.00
2018-01-19T07:23:42.797Z,344.00
2018-01-19T07:24:48.315Z,376.00
2018-01-19T07:25:54.305Z,388.00
2018-01-19T07:27:00.328Z,416.00
2018-01-19T07:31:24.464Z,564.00
2018-01-19T07:32:30.597Z,580.00
2018-01-19T07:33:37.010Z,600.00
2018-01-19T07:34:42.596Z,600.00
2018-01-19T07:35:48.873Z,612.00
2018-01-19T07:38:00.762Z,652.00
2018-01-19T07:39:06.342Z,696.00
2018-01-19T07:40:12.912Z,740.00
2018-01-19T07:41:19.988Z,780.00
2018-01-19T07:43:30.997Z,928.00
2018-01-19T07:44:36.543Z,1036.00
2018-01-19T07:45:43.146Z,1116.00
2018-01-19T07:46:49.195Z,1140.00
2018-01-19T07:49:01.324Z,1068.00
2018-01-19T07:50:06.809Z,1104.00
2018-01-19T07:51:13.466Z,1080.00
2018-01-19T07:52:19.479Z,1112.00
2018-01-19T07:53:25.504Z,1148.00
2018-01-19T07:54:31.264Z,1188.00
2018-01-19T07:55:37.613Z,1144.00
2018-01-19T07:56:43.675Z,1116.00
2018-01-19T07:57:49.827Z,1096.00
2018-01-19T07:58:55.772Z,1108.00
2018-01-19T08:00:01.883Z,1188.00
2018-01-19T08:01:07.889Z,1272.00
2018-01-19T08:02:13.944Z,1328.00
2018-01-19T08:03:19.973Z,1296.00
2018-01-19T08:04:26.107Z,1292.00
2018-01-19T08:05:32.232Z,1236.00
2018-01-19T08:06:38.270Z,1272.00
2018-01-19T08:07:45.231Z,1268.00
2018-01-19T08:08:50.368Z,1276.00
2018-01-19T08:09:56.342Z,1604.00
2018-01-19T08:11:02.405Z,1636.00
2018-01-19T08:12:08.473Z,1972.00
2018-01-19T08:13:14.531Z,1904.00
2018-01-19T08:14:20.617Z,1652.00
2018-01-19T08:15:26.665Z,1516.00
2018-01-19T08:16:32.742Z,1364.00
2018-01-19T08:17:38.803Z,1260.00
2018-01-19T08:18:44.845Z,1192.00
2018-01-19T08:19:50.903Z,1104.00
2018-01-19T08:20:57.041Z,1088.00
2018-01-19T08:22:03.169Z,1064.00
2018-01-19T08:23:09.458Z,1084.00
2018-01-19T08:24:15.205Z,924.00
2018-01-19T08:25:21.274Z,1304.00
2018-01-19T08:26:27.343Z,1412.00
2018-01-19T08:27:33.419Z,1268.00
2018-01-19T08:28:39.450Z,936.00
2018-01-19T08:29:45.548Z,756.00
2018-01-19T08:30:51.580Z,764.00
2018-01-19T08:31:57.659Z,764.00
2018-01-19T08:33:03.755Z,856.00
2018-01-19T08:34:09.820Z,1124.00
2018-01-19T08:35:15.910Z,1304.00
2018-01-19T08:36:21.957Z,1176.00
2018-01-19T08:37:27.978Z,1028.00
2018-01-19T08:38:34.040Z,904.00
2018-01-19T08:39:40.098Z,1308.00
2018-01-19T08:40:46.199Z,1720.00
2018-01-19T08:41:52.281Z,1980.00
2018-01-19T08:42:58.483Z,2208.00
2018-01-19T08:44:04.385Z,2384.00
2018-01-19T08:45:10.459Z,2364.00
2018-01-19T08:46:16.534Z,2092.00
2018-01-19T08:47:22.599Z,2112.00
2018-01-19T08:48:28.688Z,1804.00
2018-01-19T08:49:34.737Z,1708.00
2018-01-19T08:50:40.814Z,1684.00
2018-01-19T08:51:46.892Z,1984.00
2018-01-19T08:52:53.005Z,2372.00
2018-01-19T08:53:59.123Z,2500.00
2018-01-19T08:55:05.154Z,2876.00
2018-01-19T08:56:11.207Z,3016.00
2018-01-19T08:57:17.242Z,3400.00
2018-01-19T08:58:23.423Z,3896.00
2018-01-19T08:59:29.452Z,3584.00
2018-01-19T09:00:35.515Z,2692.00
2018-01-19T09:01:41.597Z,2380.00
2018-01-19T09:02:47.677Z,2540.00
2018-01-19T09:03:53.773Z,2456.00
2018-01-19T09:04:59.812Z,1924.00
2018-01-19T09:06:05.908Z,1964.00
2018-01-19T09:07:12.008Z,2112.00
2018-01-19T09:08:18.087Z,2172.00
2018-01-19T09:09:24.142Z,2184.00
2018-01-19T09:10:30.239Z,2380.00
2018-01-19T09:11:36.331Z,1996.00
2018-01-19T09:12:42.430Z,1872.00
2018-01-19T09:13:48.501Z,1656.00
2018-01-19T09:14:54.559Z,1572.00
2018-01-19T09:16:00.629Z,1680.00
2018-01-19T09:17:06.729Z,1952.00
2018-01-19T09:18:12.812Z,2516.00
2018-01-19T09:19:18.917Z,2988.00
2018-01-19T09:20:24.673Z,3792.00
2018-01-19T09:21:31.151Z,4112.00
2018-01-19T09:22:37.124Z,3992.00
2018-01-19T09:23:43.244Z,3792.00
2018-01-19T09:24:49.314Z,4340.00
2018-01-19T09:25:55.395Z,4256.00
2018-01-19T09:27:01.487Z,4168.00
2018-01-19T09:28:07.530Z,3896.00
2018-01-19T09:29:13.636Z,3500.00
2018-01-19T09:30:19.710Z,2888.00
2018-01-19T09:31:25.837Z,2800.00
2018-01-19T09:32:31.865Z,3316.00
2018-01-19T09:33:37.990Z,3860.00
2018-01-19T09:34:44.059Z,3932.00
2018-01-19T09:35:50.118Z,4036.00
2018-01-19T09:36:56.229Z,4412.00
2018-01-19T09:38:02.288Z,4416.00
2018-01-19T09:39:08.388Z,3488.00
2018-01-19T09:40:14.569Z,2560.00
2018-01-19T09:41:20.544Z,2308.00
2018-01-19T09:42:26.635Z,2820.00
2018-01-19T09:43:32.725Z,2944.00
2018-01-19T09:44:38.835Z,3512.00
2018-01-19T09:45:44.942Z,3856.00
2018-01-19T09:46:50.973Z,4216.00
2018-01-19T09:47:57.123Z,4116.00
2018-01-19T09:49:03.180Z,4564.00
2018-01-19T09:50:09.267Z,4372.00
2018-01-19T09:51:15.333Z,4380.00
2018-01-19T09:52:21.429Z,4492.00
2018-01-19T09:53:27.517Z,4800.00
2018-01-19T09:54:33.619Z,5440.00
2018-01-19T09:55:39.677Z,5644.00
2018-01-19T09:56:45.757Z,4916.00
2018-01-19T09:57:52.844Z,4924.00
2018-01-19T09:58:57.943Z,5172.00
2018-01-19T10:00:04.073Z,6304.00
2018-01-19T10:01:10.131Z,6148.00
2018-01-19T10:02:16.251Z,6668.00
2018-01-19T10:03:22.345Z,5992.00
2018-01-19T10:04:28.533Z,5776.00
2018-01-19T10:05:34.526Z,5808.00
2018-01-19T10:06:40.644Z,6068.00
2018-01-19T10:07:46.730Z,6984.00
2018-01-19T10:08:52.869Z,6784.00
2018-01-19T10:09:59.984Z,6604.00
2018-01-19T10:11:05.161Z,6808.00
2018-01-19T10:12:11.169Z,5968.00
2018-01-19T10:13:17.596Z,4920.00
2018-01-19T10:14:23.397Z,4336.00
2018-01-19T10:15:30.537Z,4544.00
2018-01-19T10:16:35.616Z,5832.00
2018-01-19T10:17:41.704Z,6568.00
2018-01-19T10:18:47.855Z,7580.00
2018-01-19T10:19:54.162Z,7044.00
2018-01-19T10:21:00.124Z,4712.00
2018-01-19T10:22:06.167Z,5280.00
2018-01-19T10:23:12.278Z,6292.00
2018-01-19T10:24:18.423Z,6960.00
2018-01-19T10:25:24.553Z,7032.00
2018-01-19T10:26:30.150Z,6916.00
2018-01-19T10:27:36.749Z,6764.00
2018-01-19T10:28:42.867Z,6552.00
2018-01-19T10:29:48.996Z,6352.00
2018-01-19T10:30:55.118Z,6076.00
2018-01-19T10:32:01.468Z,5716.00
2018-01-19T10:33:07.338Z,5512.00
2018-01-19T10:34:13.461Z,5404.00
2018-01-19T10:35:19.618Z,5232.00
2018-01-19T10:36:25.721Z,5340.00
2018-01-19T10:37:31.795Z,5716.00
2018-01-19T10:38:37.924Z,5920.00
2018-01-19T10:39:44.018Z,6676.00
2018-01-19T10:40:50.187Z,7332.00
2018-01-19T10:41:56.283Z,7376.00
2018-01-19T10:43:02.374Z,7388.00
2018-01-19T10:44:08.501Z,7040.00
2018-01-19T10:45:14.645Z,6648.00
2018-01-19T10:46:20.748Z,6564.00
2018-01-19T10:47:26.858Z,7628.00
2018-01-19T10:48:32.976Z,9708.00
2018-01-19T10:49:39.138Z,11372.00
2018-01-19T10:50:45.244Z,11756.00
2018-01-19T10:51:51.343Z,11896.00
2018-01-19T10:52:57.499Z,11928.00
2018-01-19T10:54:03.154Z,11748.00
2018-01-19T10:55:09.754Z,12004.00
2018-01-19T10:56:15.928Z,12548.00
2018-01-19T10:57:22.069Z,13444.00
2018-01-19T10:58:28.198Z,14704.00
2018-01-19T10:59:34.354Z,14864.00
2018-01-19T11:00:40.499Z,13928.00
2018-01-19T11:01:46.685Z,13064.00
2018-01-19T11:02:53.812Z,11752.00
2018-01-19T11:03:58.988Z,10924.00
2018-01-19T11:05:05.162Z,10148.00
2018-01-19T11:06:11.328Z,9908.00
2018-01-19T11:07:17.464Z,9336.00
2018-01-19T11:08:23.638Z,10120.00
2018-01-19T11:09:29.813Z,10332.00
2018-01-19T11:10:35.950Z,10344.00
2018-01-19T11:11:42.453Z,10804.00
2018-01-19T11:12:48.252Z,11368.00
2018-01-19T11:13:54.437Z,11880.00
2018-01-19T11:15:00.591Z,11660.00
2018-01-19T11:16:06.728Z,11872.00
2018-01-19T11:17:12.948Z,11116.00
2018-01-19T11:18:19.123Z,10432.00
2018-01-19T11:19:25.276Z,10172.00
2018-01-19T11:20:31.418Z,11100.00
2018-01-19T11:21:37.600Z,12604.00
2018-01-19T11:22:43.735Z,11376.00
2018-01-19T11:23:49.916Z,9724.00
2018-01-19T11:24:56.065Z,8324.00
2018-01-19T11:26:02.260Z,7288.00
2018-01-19T11:27:08.410Z,7060.00
2018-01-19T11:28:14.599Z,8556.00
2018-01-19T11:29:20.724Z,10288.00
2018-01-19T11:30:26.867Z,9956.00
2018-01-19T11:31:33.127Z,8144.00
2018-01-19T11:32:39.248Z,6828.00
2018-01-19T11:33:45.378Z,6824.00
2018-01-19T11:34:51.532Z,7024.00
2018-01-19T11:35:57.684Z,7336.00
2018-01-19T11:37:03.865Z,7340.00
2018-01-19T11:38:10.016Z,7528.00
2018-01-19T11:39:16.151Z,6808.00
2018-01-19T11:40:22.319Z,6808.00
2018-01-19T11:41:28.446Z,8036.00
2018-01-19T11:42:34.624Z,8836.00
2018-01-19T11:43:40.789Z,8356.00
2018-01-19T11:44:47.195Z,7584.00
2018-01-19T11:45:53.114Z,6828.00
2018-01-19T11:46:59.248Z,5844.00
2018-01-19T11:48:05.446Z,6328.00
2018-01-19T11:49:11.574Z,7696.00
2018-01-19T11:50:17.713Z,9176.00
2018-01-19T11:51:23.865Z,9696.00
2018-01-19T11:52:30.082Z,8896.00
2018-01-19T11:53:36.208Z,7780.00
2018-01-19T11:54:42.352Z,7128.00
2018-01-19T11:55:48.509Z,7724.00
2018-01-19T11:56:54.690Z,8804.00
2018-01-19T11:58:00.868Z,9376.00
2018-01-19T11:59:06.994Z,7680.00
2018-01-19T12:00:13.172Z,6224.00
2018-01-19T12:01:19.321Z,5104.00
2018-01-19T12:02:25.477Z,4560.00
2018-01-19T12:03:31.671Z,4012.00
2018-01-19T12:04:37.847Z,4300.00
2018-01-19T12:05:43.944Z,4840.00
2018-01-19T12:06:50.136Z,5656.00
2018-01-19T12:07:56.267Z,6244.00
2018-01-19T12:09:02.463Z,6864.00
2018-01-19T12:10:08.569Z,7080.00
2018-01-19T12:11:14.746Z,6800.00
2018-01-19T12:12:20.895Z,6372.00
2018-01-19T12:13:27.129Z,6700.00
2018-01-19T12:14:33.242Z,7632.00
2018-01-19T12:15:39.358Z,8008.00
2018-01-19T12:16:45.490Z,7824.00
2018-01-19T12:17:51.720Z,7840.00
2018-01-19T12:18:57.888Z,7776.00
2018-01-19T12:20:04.003Z,7880.00
2018-01-19T12:21:10.136Z,7916.00
2018-01-19T12:22:16.300Z,8364.00
2018-01-19T12:23:22.483Z,8324.00
2018-01-19T12:24:28.692Z,8216.00
2018-01-19T12:25:34.805Z,7712.00
2018-01-19T12:26:40.969Z,7252.00
2018-01-19T12:27:47.186Z,6832.00
2018-01-19T12:28:53.302Z,6416.00
2018-01-19T12:29:59.469Z,6532.00
2018-01-19T12:31:05.630Z,7152.00
2018-01-19T12:32:11.776Z,7504.00
2018-01-19T12:33:17.957Z,7008.00
2018-01-19T12:34:24.142Z,5992.00
2018-01-19T12:35:30.313Z,5688.00
2018-01-19T12:36:36.464Z,5960.00
2018-01-19T12:37:42.630Z,6284.00
2018-01-19T12:38:48.750Z,6064.00
2018-01-19T12:39:54.965Z,5796.00
2018-01-19T12:41:01.125Z,5408.00
2018-01-19T12:42:07.249Z,5008.00
2018-01-19T12:43:13.436Z,4720.00
2018-01-19T12:44:19.568Z,4764.00
2018-01-19T12:45:25.743Z,4952.00
2018-01-19T12:46:31.905Z,5192.00
2018-01-19T12:47:38.040Z,5612.00
2018-01-19T12:48:44.286Z,5936.00
2018-01-19T12:49:50.358Z,5696.00
2018-01-19T12:50:56.500Z,5252.00
2018-01-19T12:52:02.640Z,5024.00
2018-01-19T12:53:08.773Z,5352.00
2018-01-19T12:54:14.932Z,5892.00
2018-01-19T12:55:21.155Z,6576.00
2018-01-19T12:56:27.243Z,7196.00
2018-01-19T12:57:33.398Z,7800.00
2018-01-19T12:58:39.544Z,8136.00
2018-01-19T12:59:45.713Z,8192.00
2018-01-19T13:00:51.876Z,8388.00
2018-01-19T13:01:58.028Z,8712.00
2018-01-19T13:03:04.239Z,9408.00
2018-01-19T13:04:10.346Z,10360.00
2018-01-19T13:05:16.545Z,10152.00
2018-01-19T13:06:22.710Z,9644.00
2018-01-19T13:07:28.873Z,11228.00
2018-01-19T13:08:35.011Z,9508.00
2018-01-19T13:09:41.187Z,6708.00
2018-01-19T13:10:47.369Z,5832.00
2018-01-19T13:11:53.519Z,6928.00
2018-01-19T13:12:59.708Z,14548.00
2018-01-19T13:14:06.838Z,12840.00
2018-01-19T13:15:12.019Z,13728.00
2018-01-19T13:16:18.210Z,13488.00
2018-01-19T13:17:24.413Z,13140.00
2018-01-19T13:18:30.614Z,7592.00
2018-01-19T13:19:36.817Z,6696.00
2018-01-19T13:20:43.144Z,8312.00
2018-01-19T13:21:49.307Z,16040.00
2018-01-19T13:22:55.480Z,15236.00
2018-01-19T13:24:01.698Z,4716.00
2018-01-19T13:25:07.432Z,7512.00
2018-01-19T13:26:14.176Z,15180.00
2018-01-19T13:27:20.428Z,14584.00
2018-01-19T13:28:27.625Z,14252.00
2018-01-19T13:29:32.908Z,5532.00
2018-01-19T13:30:39.566Z,6184.00
2018-01-19T13:31:45.367Z,13300.00
2018-01-19T13:32:51.619Z,12968.00
2018-01-19T13:33:57.835Z,12400.00
2018-01-19T13:35:04.126Z,12000.00
2018-01-19T13:36:10.436Z,11736.00
2018-01-19T13:37:16.627Z,11432.00
2018-01-19T13:38:23.009Z,10948.00
2018-01-19T13:39:29.166Z,10380.00
2018-01-19T13:40:35.519Z,9892.00
2018-01-19T13:41:41.748Z,9436.00
2018-01-19T13:42:48.132Z,9056.00
2018-01-19T13:43:54.340Z,8732.00
2018-01-19T13:45:01.632Z,8536.00
2018-01-19T13:46:06.931Z,8408.00
2018-01-19T13:47:13.282Z,8492.00
2018-01-19T13:48:19.559Z,8472.00
2018-01-19T13:49:25.872Z,7848.00
2018-01-19T13:50:32.170Z,8172.00
2018-01-19T13:51:38.499Z,8072.00
2018-01-19T13:52:44.872Z,7848.00
2018-01-19T13:53:51.141Z,7748.00
2018-01-19T13:54:57.409Z,7644.00
2018-01-19T13:56:03.714Z,7564.00
2018-01-19T13:57:11.029Z,7488.00
2018-01-19T13:58:16.351Z,7400.00
2018-01-19T13:59:22.644Z,7276.00
2018-01-19T14:00:28.968Z,7188.00
2018-01-19T14:01:35.273Z,7072.00
2018-01-19T14:02:41.581Z,6996.00
2018-01-19T14:03:47.896Z,6928.00
2018-01-19T14:04:54.174Z,6796.00
2018-01-19T14:06:01.544Z,6724.00
2018-01-19T14:07:06.795Z,6632.00
2018-01-19T14:08:13.148Z,6548.00
2018-01-19T14:09:19.408Z,6488.00
2018-01-19T14:10:25.802Z,6432.00
2018-01-19T14:11:32.124Z,6344.00
2018-01-19T14:12:38.362Z,6312.00
2018-01-19T14:13:44.676Z,6280.00
2018-01-19T14:14:50.945Z,6236.00
2018-01-19T14:15:57.285Z,6136.00
2018-01-19T14:17:03.572Z,6016.00
2018-01-19T14:18:09.901Z,5908.00
2018-01-19T14:19:16.180Z,5936.00
2018-01-19T14:20:22.492Z,5824.00
2018-01-19T14:21:28.781Z,5756.00
2018-01-19T14:22:35.113Z,5696.00
2018-01-19T14:23:41.429Z,5612.00
2018-01-19T14:24:47.649Z,5536.00
2018-01-19T14:25:53.976Z,5460.00
2018-01-19T14:27:00.249Z,5420.00
2018-01-19T14:28:06.556Z,5360.00
2018-01-19T14:29:12.830Z,5324.00
2018-01-19T14:30:19.120Z,5284.00
2018-01-19T14:31:25.446Z,5256.00
2018-01-19T14:32:31.694Z,5204.00
2018-01-19T14:33:37.985Z,5180.00
2018-01-19T14:34:44.254Z,5124.00
2018-01-19T14:35:50.597Z,5060.00
2018-01-19T14:36:56.829Z,5000.00
2018-01-19T14:38:03.101Z,4952.00
2018-01-19T14:39:09.426Z,4916.00
2018-01-19T14:40:15.737Z,4848.00
2018-01-19T14:41:21.931Z,4772.00
2018-01-19T14:42:28.220Z,4744.00
2018-01-19T14:43:34.519Z,4656.00
2018-01-19T14:44:40.809Z,4540.00
2018-01-19T14:46:53.396Z,4000.00
2018-01-19T14:47:59.102Z,3672.00
2018-01-19T14:49:05.855Z,3620.00
2018-01-19T14:50:12.188Z,3996.00
2018-01-19T14:51:18.377Z,3936.00
2018-01-19T14:52:24.620Z,3912.00
2018-01-19T14:53:30.888Z,3872.00
2018-01-19T14:54:37.226Z,3780.00
2018-01-19T14:55:43.442Z,3728.00
2018-01-19T14:56:49.653Z,3704.00
2018-01-19T14:57:55.935Z,3668.00
2018-01-19T14:59:02.207Z,3632.00
2018-01-19T15:00:08.437Z,3580.00
2018-01-19T15:01:14.674Z,3528.00
2018-01-19T15:02:20.999Z,3472.00
2018-01-19T15:03:27.203Z,3404.00
2018-01-19T15:04:33.494Z,3324.00
2018-01-19T15:05:39.733Z,3244.00
2018-01-19T15:06:46.037Z,3180.00
2018-01-19T15:07:52.219Z,3120.00
2018-01-19T15:08:58.541Z,3060.00
2018-01-19T15:10:04.727Z,2980.00
2018-01-19T15:11:10.992Z,2896.00
2018-01-19T15:12:17.300Z,2804.00
2018-01-19T15:13:23.452Z,2740.00
2018-01-19T15:14:29.759Z,2672.00
2018-01-19T15:15:36.067Z,2596.00
2018-01-19T15:16:42.196Z,2492.00
2018-01-19T15:17:48.472Z,2416.00
2018-01-19T15:18:54.676Z,2308.00
2018-01-19T15:20:00.926Z,2236.00
2018-01-19T15:21:07.135Z,2168.00
2018-01-19T15:22:13.379Z,2120.00
2018-01-19T15:23:19.619Z,1964.00
2018-01-19T15:24:25.856Z,1724.00
2018-01-19T15:25:32.142Z,1480.00
2018-01-19T15:26:38.300Z,1392.00
2018-01-19T15:27:44.530Z,1324.00
2018-01-19T15:28:51.721Z,1276.00